Time;durP1;ratioP1;P1;durP2;ratioP2;P2;SDS_P1;SDS_P2;PMS_P1;PMS_P2;Temp;Humidity;BMP_temperature;BMP_pressure;BME280_temperature;BME280_humidity;BME280_pressure;Samples;Min_cycle;Max_cycle;Signal;HPM_P1;HPM_P2
2022/07/13 00:01:11;;;;;;;;;;;;;;;17.63;100.00;101445.50;5064176;28;19932;-83
2022/07/13 00:03:45;;;;;;;;;;;;;;;17.67;100.00;101446.50;5067335;28;19947;-84
2022/07/13 00:06:13;;;;;;;;;;;;;;;17.62;100.00;101443.88;5059715;28;19929;-84
2022/07/13 00:08:45;;;;;;;;;;;;;;;17.74;100.00;101442.53;5072165;28;20381;-84
2022/07/13 00:11:18;;;;;;;;;;;;;;;17.81;100.00;101443.72;5062328;28;19924;-85
2022/07/13 00:13:51;;;;;;;;;;;;;;;17.92;100.00;101443.53;5063143;28;19929;-84
2022/07/13 00:16:19;;;;;;;;;;;;;;;17.94;100.00;101436.59;5055814;28;19924;-86
2022/07/13 00:18:53;;;;;;;;;;;;;;;18.01;100.00;101431.44;5053873;28;19936;-84
2022/07/13 00:21:21;;;;;;;;;;;;;;;18.08;100.00;101431.03;5056006;28;19937;-84
2022/07/13 00:23:49;;;;;;;;;;;;;;;18.04;100.00;101423.72;5053633;28;19925;-85
2022/07/13 00:26:17;;;;;;;;;;;;;;;18.02;100.00;101430.34;5054526;28;20424;-83
2022/07/13 00:28:50;;;;;;;;;;;;;;;18.11;100.00;101424.06;5055753;28;20408;-83
2022/07/13 00:31:18;;;;;;;;;;;;;;;18.04;100.00;101412.69;5076451;28;19929;-84
2022/07/13 00:33:51;;;;;;;;;;;;;;;17.97;100.00;101408.41;5065313;28;19924;-85
2022/07/13 00:36:20;;;;;;;;;;;;;;;17.96;100.00;101414.25;5061046;28;19924;-84
2022/07/13 00:38:53;;;;;;;;;;;;;;;17.93;100.00;101398.34;5061389;28;19936;-83
2022/07/13 00:41:21;;;;;;;;;;;;;;;17.94;100.00;101400.78;5070440;28;19924;-84
2022/07/13 00:43:54;;;;;;;;;;;;;;;17.95;100.00;101404.34;5063246;28;19932;-84
2022/07/13 00:46:22;;;;;;;;;;;;;;;17.92;100.00;101413.25;5067441;28;19942;-85
2022/07/13 00:48:55;;;;;;;;;;;;;;;17.99;100.00;101408.94;5073889;28;19924;-84
2022/07/13 00:51:29;;;;;;;;;;;;;;;17.97;100.00;101402.09;5073440;28;19928;-85
2022/07/13 00:54:03;;;;;;;;;;;;;;;17.98;100.00;101389.94;5060850;28;19940;-84
2022/07/13 00:56:32;;;;;;;;;;;;;;;18.00;100.00;101380.25;5057324;28;19931;-85
2022/07/13 00:59:05;;;;;;;;;;;;;;;17.93;100.00;101385.38;5053528;28;20483;-83
2022/07/13 01:01:33;;;;;;;;;;;;;;;17.92;100.00;101386.50;5055105;28;19936;-83
2022/07/13 01:04:01;;;;;;;;;;;;;;;17.91;100.00;101392.28;5053261;28;19925;-84
2022/07/13 01:06:31;;;;;;;;;;;;;;;17.94;100.00;101387.03;5053528;28;19928;-84
2022/07/13 01:09:00;;;;;;;;;;;;;;;17.92;100.00;101391.22;5054071;28;19932;-84
2022/07/13 01:11:31;;;;;;;;;;;;;;;17.93;100.00;101390.88;5077699;28;19932;-84
2022/07/13 01:14:04;;;;;;;;;;;;;;;17.97;100.00;101383.63;5065277;28;19940;-83
2022/07/13 01:16:32;;;;;;;;;;;;;;;18.09;100.00;101382.25;5071478;28;19925;-84
2022/07/13 01:19:00;;;;;;;;;;;;;;;18.00;100.00;101377.50;5062641;28;20418;-83
2022/07/13 01:21:37;;;;;;;;;;;;;;;17.93;100.00;101373.56;5065687;28;20300;-84
2022/07/13 01:24:07;;;;;;;;;;;;;;;18.01;100.00;101372.81;5073334;28;19924;-85
2022/07/13 01:26:40;;;;;;;;;;;;;;;18.02;100.00;101363.41;5073400;28;19932;-84
2022/07/13 01:29:13;;;;;;;;;;;;;;;17.97;100.00;101356.09;5072840;28;19928;-84
2022/07/13 01:31:46;;;;;;;;;;;;;;;17.95;100.00;101357.53;5074193;28;19931;-84
2022/07/13 01:34:14;;;;;;;;;;;;;;;17.92;100.00;101361.72;5073221;28;19929;-85
2022/07/13 01:36:47;;;;;;;;;;;;;;;17.84;100.00;101365.19;5072115;28;19924;-85
2022/07/13 01:39:21;;;;;;;;;;;;;;;17.80;100.00;101365.03;5072552;28;19924;-85
2022/07/13 01:41:54;;;;;;;;;;;;;;;17.79;100.00;101365.34;5074512;28;20582;-85
2022/07/13 01:44:22;;;;;;;;;;;;;;;17.77;100.00;101364.81;5072978;28;19925;-84
2022/07/13 01:46:56;;;;;;;;;;;;;;;17.73;100.00;101359.13;5071231;28;19925;-84
2022/07/13 01:49:24;;;;;;;;;;;;;;;17.75;100.00;101348.63;5070533;28;19928;-84
2022/07/13 01:51:57;;;;;;;;;;;;;;;17.73;100.00;101350.88;5070778;28;19924;-84
2022/07/13 01:54:31;;;;;;;;;;;;;;;17.67;100.00;101347.41;5060822;28;20397;-84
2022/07/13 01:57:04;;;;;;;;;;;;;;;17.60;100.00;101344.28;5051785;28;19935;-85
2022/07/13 01:59:32;;;;;;;;;;;;;;;17.62;100.00;101336.56;5050160;28;19931;-84
2022/07/13 02:02:05;;;;;;;;;;;;;;;17.61;100.00;101339.63;5050466;28;19929;-84
2022/07/13 02:04:33;;;;;;;;;;;;;;;17.59;100.00;101336.34;5083341;28;19925;-84
2022/07/13 02:07:07;;;;;;;;;;;;;;;17.62;100.00;101335.72;5064244;28;20270;-84
2022/07/13 02:09:37;;;;;;;;;;;;;;;17.58;100.00;101334.72;5055339;28;19928;-83
2022/07/13 02:12:10;;;;;;;;;;;;;;;17.57;100.00;101333.09;5058591;28;19935;-84
2022/07/13 02:14:38;;;;;;;;;;;;;;;17.53;100.00;101334.84;5050580;28;19931;-83
2022/07/13 02:17:06;;;;;;;;;;;;;;;17.45;100.00;101323.44;5050613;28;19925;-85
2022/07/13 02:19:34;;;;;;;;;;;;;;;17.50;100.00;101330.78;5049833;28;20312;-84
2022/07/13 02:22:07;;;;;;;;;;;;;;;17.45;100.00;101333.63;5060508;28;19931;-84
2022/07/13 02:24:37;;;;;;;;;;;;;;;17.39;100.00;101323.91;5090587;28;19928;-84
2022/07/13 02:27:05;;;;;;;;;;;;;;;17.43;100.00;101316.66;5082111;28;19939;-83
2022/07/13 02:29:38;;;;;;;;;;;;;;;17.40;100.00;101312.56;5051662;28;19924;-83
2022/07/13 02:32:11;;;;;;;;;;;;;;;17.31;100.00;101317.19;5059195;28;19924;-83
2022/07/13 02:34:44;;;;;;;;;;;;;;;17.32;100.00;101302.31;5073326;28;19925;-83
2022/07/13 02:37:17;;;;;;;;;;;;;;;17.31;100.00;101298.72;5072031;28;19924;-83
2022/07/13 02:39:47;;;;;;;;;;;;;;;17.28;100.00;101302.09;5073145;28;20622;-83
2022/07/13 02:42:20;;;;;;;;;;;;;;;17.22;100.00;101295.09;5073272;28;19931;-84
2022/07/13 02:44:48;;;;;;;;;;;;;;;17.20;100.00;101282.78;5065928;28;19925;-83
2022/07/13 02:47:16;;;;;;;;;;;;;;;17.24;100.00;101287.34;5049979;28;19932;-84
2022/07/13 02:49:44;;;;;;;;;;;;;;;17.23;100.00;101279.41;5051080;28;20247;-84
2022/07/13 02:52:17;;;;;;;;;;;;;;;17.18;100.00;101283.09;5050121;28;19925;-84
2022/07/13 02:54:48;;;;;;;;;;;;;;;17.17;100.00;101292.47;5050267;28;20300;-83
2022/07/13 02:57:16;;;;;;;;;;;;;;;17.09;100.00;101284.94;5049700;28;20385;-83
2022/07/13 02:59:50;;;;;;;;;;;;;;;17.11;100.00;101288.19;5050191;28;20397;-82
2022/07/13 03:02:18;;;;;;;;;;;;;;;17.17;100.00;101279.50;5050638;28;20293;-83
2022/07/13 03:04:51;;;;;;;;;;;;;;;17.16;100.00;101272.38;5050062;28;19932;-83
2022/07/13 03:07:19;;;;;;;;;;;;;;;17.15;100.00;101275.44;5054290;28;19928;-83
2022/07/13 03:09:54;;;;;;;;;;;;;;;17.16;100.00;101277.06;5069354;28;19925;-84
2022/07/13 03:12:28;;;;;;;;;;;;;;;17.11;100.00;101277.19;5069908;28;19925;-84
2022/07/13 03:14:57;;;;;;;;;;;;;;;17.17;100.00;101287.75;5069824;28;19932;-84
2022/07/13 03:17:30;;;;;;;;;;;;;;;17.15;100.00;101283.69;5069680;28;19924;-84
2022/07/13 03:20:07;;;;;;;;;;;;;;;17.14;100.00;101291.13;5054829;28;19932;-85
2022/07/13 03:22:35;;;;;;;;;;;;;;;17.16;100.00;101288.88;5054508;28;19939;-84
2022/07/13 03:25:05;;;;;;;;;;;;;;;17.21;100.00;101289.88;5057897;28;19931;-84
2022/07/13 03:27:33;;;;;;;;;;;;;;;17.20;100.00;101282.78;5062274;28;19941;-84
2022/07/13 03:30:01;;;;;;;;;;;;;;;17.22;100.00;101283.28;5061754;28;20385;-84
2022/07/13 03:32:34;;;;;;;;;;;;;;;17.28;100.00;101287.53;5085770;28;19979;-84
2022/07/13 03:35:08;;;;;;;;;;;;;;;17.22;100.00;101286.84;5069355;28;19932;-83
2022/07/13 03:37:42;;;;;;;;;;;;;;;17.26;100.00;101282.34;5067289;28;19925;-83
2022/07/13 03:40:14;;;;;;;;;;;;;;;17.36;100.00;101273.06;5064547;28;19925;-83
2022/07/13 03:42:49;;;;;;;;;;;;;;;17.25;100.00;101279.88;5072725;28;19937;-84
2022/07/13 03:45:23;;;;;;;;;;;;;;;17.33;100.00;101274.47;5080193;28;19931;-83
2022/07/13 03:47:51;;;;;;;;;;;;;;;17.34;100.00;101284.38;5059642;28;19928;-85
2022/07/13 03:50:24;;;;;;;;;;;;;;;17.38;100.00;101278.25;5063162;28;20159;-83
2022/07/13 03:52:57;;;;;;;;;;;;;;;17.43;100.00;101269.88;5062557;28;20373;-84
2022/07/13 03:55:32;;;;;;;;;;;;;;;17.47;100.00;101270.88;5079832;28;19924;-83
2022/07/13 03:58:05;;;;;;;;;;;;;;;17.44;100.00;101276.97;5075469;28;19935;-83
2022/07/13 04:00:41;;;;;;;;;;;;;;;17.52;100.00;101254.22;5064900;28;19932;-84
2022/07/13 04:03:09;;;;;;;;;;;;;;;17.48;100.00;101258.72;5070524;28;19931;-84
2022/07/13 04:05:42;;;;;;;;;;;;;;;17.55;100.00;101261.84;5067149;28;19925;-83
2022/07/13 04:08:10;;;;;;;;;;;;;;;17.50;100.00;101253.72;5068511;28;19973;-86
2022/07/13 04:10:44;;;;;;;;;;;;;;;17.53;100.00;101255.84;5064139;28;19928;-84
2022/07/13 04:13:15;;;;;;;;;;;;;;;17.54;100.00;101254.72;5069454;28;19928;-83
2022/07/13 04:15:48;;;;;;;;;;;;;;;17.60;100.00;101241.66;5083475;28;19924;-84
2022/07/13 04:18:16;;;;;;;;;;;;;;;17.64;100.00;101240.69;5072209;28;19951;-83
2022/07/13 04:20:49;;;;;;;;;;;;;;;17.72;100.00;101238.31;5065737;28;19932;-84
2022/07/13 04:23:22;;;;;;;;;;;;;;;17.66;100.00;101240.38;5070123;28;19925;-85
2022/07/13 04:25:56;;;;;;;;;;;;;;;17.73;100.00;101238.03;5071876;28;19928;-84
2022/07/13 04:28:24;;;;;;;;;;;;;;;17.76;100.00;101237.38;5064944;28;19925;-86
2022/07/13 04:30:52;;;;;;;;;;;;;;;17.81;100.00;101228.97;5075162;28;20306;-83
2022/07/13 04:33:29;;;;;;;;;;;;;;;17.85;100.00;101231.91;5066686;28;20255;-83
2022/07/13 04:36:02;;;;;;;;;;;;;;;17.84;100.00;101227.53;5061649;28;19948;-85
2022/07/13 04:38:37;;;;;;;;;;;;;;;17.89;100.00;101223.84;5067118;28;19939;-84
2022/07/13 04:41:17;;;;;;;;;;;;;;;17.95;100.00;101222.59;5071512;28;19924;-83
2022/07/13 04:43:50;;;;;;;;;;;;;;;17.93;100.00;101224.88;5060928;28;20310;-84
2022/07/13 04:46:19;;;;;;;;;;;;;;;17.97;100.00;101218.41;5074045;28;19925;-83
2022/07/13 04:48:50;;;;;;;;;;;;;;;17.98;100.00;101206.28;5069546;28;19936;-83
2022/07/13 04:51:18;;;;;;;;;;;;;;;17.98;100.00;101216.44;5063026;28;19936;-84
2022/07/13 04:53:52;;;;;;;;;;;;;;;18.00;100.00;101203.19;5075833;28;19951;-83
2022/07/13 04:56:22;;;;;;;;;;;;;;;18.02;100.00;101206.44;5065393;28;19925;-84
2022/07/13 04:58:55;;;;;;;;;;;;;;;18.04;100.00;101209.69;5070257;28;19929;-84
2022/07/13 05:01:28;;;;;;;;;;;;;;;18.07;100.00;101211.81;5067365;28;19955;-84
2022/07/13 05:04:04;;;;;;;;;;;;;;;18.06;100.00;101206.63;5068623;28;19935;-83
2022/07/13 05:06:37;;;;;;;;;;;;;;;18.13;100.00;101205.03;5064136;28;20392;-84
2022/07/13 05:09:06;;;;;;;;;;;;;;;18.20;100.00;101201.78;5064446;28;19928;-82
2022/07/13 05:11:40;;;;;;;;;;;;;;;18.30;100.00;101197.97;5056592;28;19928;-83
2022/07/13 05:14:13;;;;;;;;;;;;;;;18.27;100.00;101201.34;5080881;28;20395;-83
2022/07/13 05:16:41;;;;;;;;;;;;;;;18.36;100.00;101199.44;5087133;28;19928;-84
2022/07/13 05:19:15;;;;;;;;;;;;;;;18.41;100.00;101206.72;5071919;28;20377;-85
2022/07/13 05:21:49;;;;;;;;;;;;;;;18.38;100.00;101208.19;5064350;28;19928;-83
2022/07/13 05:24:22;;;;;;;;;;;;;;;18.44;100.00;101206.09;5062495;28;19944;-83
2022/07/13 05:26:56;;;;;;;;;;;;;;;18.44;100.00;101198.63;5058392;28;19936;-83
2022/07/13 05:29:25;;;;;;;;;;;;;;;18.48;100.00;101194.09;5067037;28;19932;-84
2022/07/13 05:31:53;;;;;;;;;;;;;;;18.46;100.00;101199.16;5062754;28;19925;-84
2022/07/13 05:34:21;;;;;;;;;;;;;;;18.46;100.00;101195.56;5061711;28;19929;-84
2022/07/13 05:36:54;;;;;;;;;;;;;;;18.50;100.00;101174.50;5057092;28;20285;-85
2022/07/13 05:39:23;;;;;;;;;;;;;;;18.51;100.00;101178.88;5073909;28;19925;-84
2022/07/13 05:41:58;;;;;;;;;;;;;;;18.48;100.00;101183.09;5068599;28;19928;-84
2022/07/13 05:44:31;;;;;;;;;;;;;;;18.56;100.00;101175.97;5065198;28;20292;-84
2022/07/13 05:47:04;;;;;;;;;;;;;;;18.55;100.00;101177.09;5082418;28;19931;-84
2022/07/13 05:49:37;;;;;;;;;;;;;;;18.57;100.00;101179.53;5073521;28;19928;-84
2022/07/13 05:52:11;;;;;;;;;;;;;;;18.54;100.00;101175.47;5069683;28;19924;-84
2022/07/13 05:54:45;;;;;;;;;;;;;;;18.53;100.00;101176.59;5067871;28;19936;-84
2022/07/13 05:57:15;;;;;;;;;;;;;;;18.50;100.00;101175.28;5068175;28;20297;-85
2022/07/13 05:59:43;;;;;;;;;;;;;;;18.57;100.00;101185.84;5066774;28;19960;-84
2022/07/13 06:02:11;;;;;;;;;;;;;;;18.61;100.00;101184.06;5058482;28;19937;-84
2022/07/13 06:04:44;;;;;;;;;;;;;;;18.63;100.00;101186.50;5062285;28;19924;-85
2022/07/13 06:07:17;;;;;;;;;;;;;;;18.72;100.00;101181.00;5055569;28;20244;-84
2022/07/13 06:09:50;;;;;;;;;;;;;;;18.65;100.00;101184.25;5058417;28;19929;-84
2022/07/13 06:12:20;;;;;;;;;;;;;;;18.76;100.00;101174.53;5075090;28;19924;-83
2022/07/13 06:14:48;;;;;;;;;;;;;;;18.78;100.00;101172.25;5060363;28;20377;-85
2022/07/13 06:17:21;;;;;;;;;;;;;;;18.76;100.00;101173.72;5060189;28;19936;-84
2022/07/13 06:19:53;;;;;;;;;;;;;;;18.73;100.00;101175.19;5058018;28;19925;-84
2022/07/13 06:22:26;;;;;;;;;;;;;;;18.69;100.00;101175.00;5060612;28;19925;-84
2022/07/13 06:24:54;;;;;;;;;;;;;;;18.73;100.00;101172.41;5072080;28;20376;-85
2022/07/13 06:27:24;;;;;;;;;;;;;;;18.75;100.00;101175.66;5071782;28;19924;-83
2022/07/13 06:29:57;;;;;;;;;;;;;;;18.73;100.00;101168.84;5065348;28;19935;-82
2022/07/13 06:32:30;;;;;;;;;;;;;;;18.70;100.00;101164.78;5061258;28;19924;-82
2022/07/13 06:34:57;;;;;;;;;;;;;;;18.84;100.00;101157.16;5067982;28;19924;-88
2022/07/13 06:37:26;;;;;;;;;;;;;;;18.89;100.00;101153.47;5055710;28;19924;-84
2022/07/13 06:39:58;;;;;;;;;;;;;;;18.95;100.00;101162.41;5063885;28;19931;-85
2022/07/13 06:42:29;;;;;;;;;;;;;;;19.11;100.00;101154.44;5065278;28;19932;-85
2022/07/13 06:45:01;;;;;;;;;;;;;;;19.25;100.00;101154.25;5053847;28;19928;-83
2022/07/13 06:47:30;;;;;;;;;;;;;;;19.33;100.00;101150.66;5066616;28;19930;-85
2022/07/13 06:50:03;;;;;;;;;;;;;;;19.48;100.00;101154.84;5067047;28;20377;-88
2022/07/13 06:52:36;;;;;;;;;;;;;;;19.61;100.00;101148.31;5067973;28;19931;-87
2022/07/13 06:55:09;;;;;;;;;;;;;;;19.73;100.00;101144.84;5066826;28;19928;-85
2022/07/13 06:57:39;;;;;;;;;;;;;;;19.85;100.00;101136.72;5062824;28;19933;-86
2022/07/13 07:00:13;;;;;;;;;;;;;;;20.00;100.00;101138.09;5060944;28;20401;-84
2022/07/13 07:02:41;;;;;;;;;;;;;;;20.19;100.00;101137.69;5063014;28;19948;-84
2022/07/13 07:05:14;;;;;;;;;;;;;;;20.30;100.00;101146.41;5062435;28;20297;-82
2022/07/13 07:07:47;;;;;;;;;;;;;;;20.42;100.00;101140.13;5070003;28;19924;-85
2022/07/13 07:10:20;;;;;;;;;;;;;;;20.48;100.00;101138.78;5070484;28;20400;-84
2022/07/13 07:12:55;;;;;;;;;;;;;;;20.78;100.00;101133.19;5059179;28;20288;-84
2022/07/13 07:15:23;;;;;;;;;;;;;;;20.90;100.00;101136.03;5065423;28;19947;-85
2022/07/13 07:17:56;;;;;;;;;;;;;;;20.96;100.00;101135.81;5053811;28;19940;-86
2022/07/13 07:20:24;;;;;;;;;;;;;;;21.06;100.00;101143.72;5050969;28;20392;-86
2022/07/13 07:22:52;;;;;;;;;;;;;;;21.12;100.00;101133.25;5050888;28;19932;-84
2022/07/13 07:25:25;;;;;;;;;;;;;;;21.27;100.00;101120.69;5040632;28;20489;-84
2022/07/13 07:27:59;;;;;;;;;;;;;;;21.46;100.00;101123.75;5046036;28;19952;-85
2022/07/13 07:30:32;;;;;;;;;;;;;;;21.61;100.00;101108.44;5037929;28;19932;-84
2022/07/13 07:33:05;;;;;;;;;;;;;;;21.69;100.00;101101.19;5046502;28;20440;-83
2022/07/13 07:35:39;;;;;;;;;;;;;;;21.80;100.00;101096.00;5042315;28;19943;-83
2022/07/13 07:38:06;;;;;;;;;;;;;;;21.83;100.00;101104.41;5037410;28;19932;-85
2022/07/13 07:40:34;;;;;;;;;;;;;;;21.72;100.00;101109.63;5039244;28;19929;-86
2022/07/13 07:43:04;;;;;;;;;;;;;;;21.59;100.00;101116.31;5041155;28;19932;-85
2022/07/13 07:45:32;;;;;;;;;;;;;;;21.45;100.00;101108.28;5035014;28;20274;-83
2022/07/13 07:48:00;;;;;;;;;;;;;;;21.29;100.00;101119.22;5042761;28;19932;-87
2022/07/13 07:50:33;;;;;;;;;;;;;;;21.31;100.00;101114.16;5045291;28;19939;-86
2022/07/13 07:53:06;;;;;;;;;;;;;;;21.26;100.00;101119.91;5043619;28;19935;-84
2022/07/13 07:55:34;;;;;;;;;;;;;;;21.25;100.00;101115.50;5038443;28;20513;-85
2022/07/13 07:58:01;;;;;;;;;;;;;;;21.14;100.00;101119.88;5039614;28;19933;-84
2022/07/13 08:00:37;;;;;;;;;;;;;;;21.15;100.00;101113.19;5041447;28;19933;-85
2022/07/13 08:03:05;;;;;;;;;;;;;;;21.15;100.00;101099.34;5038306;28;20498;-84
2022/07/13 08:05:38;;;;;;;;;;;;;;;21.09;100.00;101103.47;5044286;28;19928;-85
2022/07/13 08:08:06;;;;;;;;;;;;;;;21.06;100.00;101099.44;5031973;28;20408;-84
2022/07/13 08:10:38;;;;;;;;;;;;;;;21.10;100.00;101088.50;5042281;28;20357;-85
2022/07/13 08:13:06;;;;;;;;;;;;;;;21.05;100.00;101082.03;5040366;28;20615;-85
2022/07/13 08:15:36;;;;;;;;;;;;;;;21.17;100.00;101078.50;5040154;28;19939;-84
2022/07/13 08:18:10;;;;;;;;;;;;;;;21.27;100.00;101076.41;5042928;28;20096;-85
2022/07/13 08:20:43;;;;;;;;;;;;;;;21.21;100.00;101073.06;5055240;28;19955;-84
2022/07/13 08:26:06;;;;;;;;;;;;;;;21.22;100.00;101075.47;5052073;28;19924;-84
2022/07/13 08:28:34;;;;;;;;;;;;;;;21.26;100.00;101086.69;5060685;28;19924;-85
2022/07/13 08:31:03;;;;;;;;;;;;;;;21.36;100.00;101093.72;5064408;28;19935;-85
2022/07/13 08:39:10;;;;;;;;;;;;;;;21.47;100.00;101103.19;5038758;28;19932;-85
2022/07/13 08:41:44;;;;;;;;;;;;;;;21.59;100.00;101099.69;5041774;28;19943;-85
2022/07/13 08:44:17;;;;;;;;;;;;;;;21.61;100.00;101096.56;5038373;28;20514;-85
2022/07/13 08:46:46;;;;;;;;;;;;;;;21.66;100.00;101094.38;5037108;28;19939;-83
2022/07/13 08:49:20;;;;;;;;;;;;;;;21.86;100.00;101092.66;5039152;28;19947;-84
2022/07/13 08:51:49;;;;;;;;;;;;;;;21.94;100.00;101085.38;5038106;28;20439;-85
2022/07/13 08:54:17;;;;;;;;;;;;;;;22.06;100.00;101095.63;5037130;28;20384;-82
2022/07/13 08:56:50;;;;;;;;;;;;;;;22.04;100.00;101082.13;5037013;28;19955;-84
2022/07/13 08:59:23;;;;;;;;;;;;;;;22.07;100.00;101086.19;5044052;28;20010;-85
2022/07/13 09:01:52;;;;;;;;;;;;;;;22.08;100.00;101085.81;5039680;28;19932;-85
2022/07/13 09:04:20;;;;;;;;;;;;;;;22.07;100.00;101089.75;5042107;28;19932;-85
2022/07/13 09:06:54;;;;;;;;;;;;;;;22.05;100.00;101091.25;5037781;28;19936;-85
2022/07/13 09:09:32;;;;;;;;;;;;;;;22.22;100.00;101096.53;5037086;28;19932;-85
2022/07/13 09:12:11;;;;;;;;;;;;;;;22.11;100.00;101087.09;5037182;28;19948;-83
2022/07/13 09:14:39;;;;;;;;;;;;;;;22.27;100.00;101078.06;5038998;28;20304;-85
2022/07/13 09:17:08;;;;;;;;;;;;;;;22.36;100.00;101076.00;5044242;28;19939;-84
2022/07/13 09:19:39;;;;;;;;;;;;;;;22.36;100.00;101085.09;5036332;28;19939;-84
2022/07/13 09:22:12;;;;;;;;;;;;;;;22.29;100.00;101090.41;5035695;28;19928;-86
2022/07/13 09:24:46;;;;;;;;;;;;;;;22.39;100.00;101078.06;5041375;28;19924;-84
2022/07/13 09:27:15;;;;;;;;;;;;;;;22.49;100.00;101073.97;5044824;28;19940;-85
2022/07/13 09:29:43;;;;;;;;;;;;;;;22.63;100.00;101071.59;5046411;28;19932;-86
2022/07/13 09:32:18;;;;;;;;;;;;;;;22.71;100.00;101065.09;5050995;28;19940;-88
2022/07/13 09:34:57;;;;;;;;;;;;;;;22.70;100.00;101068.22;5054122;28;19932;-86
2022/07/13 09:37:31;;;;;;;;;;;;;;;22.82;100.00;101068.16;5048590;28;19932;-85
2022/07/13 09:40:01;;;;;;;;;;;;;;;22.89;100.00;101068.34;5047313;28;19932;-86
2022/07/13 09:42:35;;;;;;;;;;;;;;;23.00;100.00;101060.31;5050699;28;19932;-86
2022/07/13 09:47:57;;;;;;;;;;;;;;;23.06;100.00;101058.09;5051209;28;19940;-85
2022/07/13 09:50:25;;;;;;;;;;;;;;;23.05;100.00;101059.28;5059656;28;20318;-86
2022/07/13 09:52:58;;;;;;;;;;;;;;;23.25;100.00;101051.88;5050609;28;19932;-87
2022/07/13 09:55:34;;;;;;;;;;;;;;;23.23;100.00;101049.47;5042621;28;19933;-84
2022/07/13 09:58:10;;;;;;;;;;;;;;;23.36;100.00;101050.16;5047760;28;19929;-84
2022/07/13 10:00:38;;;;;;;;;;;;;;;23.39;100.00;101054.22;5059709;28;19929;-85
2022/07/13 10:03:13;;;;;;;;;;;;;;;23.43;100.00;101044.00;5050816;28;19932;-87
2022/07/13 10:05:47;;;;;;;;;;;;;;;23.47;100.00;101038.53;5038546;28;19947;-86
2022/07/13 10:08:16;;;;;;;;;;;;;;;23.46;100.00;101043.25;5038254;28;19955;-84
2022/07/13 10:10:50;;;;;;;;;;;;;;;23.60;100.00;101045.59;5036211;28;19939;-83
2022/07/13 10:13:23;;;;;;;;;;;;;;;23.60;100.00;101046.41;5036064;28;19932;-84
2022/07/13 10:15:51;;;;;;;;;;;;;;;23.74;100.00;101045.94;5032671;28;20615;-84
2022/07/13 10:18:22;;;;;;;;;;;;;;;23.84;100.00;101038.22;5032805;28;20397;-82
2022/07/13 10:21:02;;;;;;;;;;;;;;;24.01;100.00;101039.81;5043213;28;19940;-84
2022/07/13 10:23:36;;;;;;;;;;;;;;;23.96;100.00;101032.56;5037458;28;19947;-86
2022/07/13 10:26:04;;;;;;;;;;;;;;;23.87;100.00;101041.06;5042927;28;19939;-83
2022/07/13 10:28:33;;;;;;;;;;;;;;;24.05;100.00;101030.38;5045046;28;19991;-86
2022/07/13 10:31:16;;;;;;;;;;;;;;;24.36;100.00;101028.66;5043638;28;19935;-81
2022/07/13 10:33:46;;;;;;;;;;;;;;;24.61;100.00;101020.81;5038722;28;21083;-85
2022/07/13 10:36:39;;;;;;;;;;;;;;;24.83;100.00;101017.63;5045563;28;19932;-84
2022/07/13 10:39:08;;;;;;;;;;;;;;;24.78;100.00;101013.19;5052223;28;19940;-84
2022/07/13 10:41:55;;;;;;;;;;;;;;;24.85;100.00;101007.75;5053522;28;20392;-85
2022/07/13 10:44:36;;;;;;;;;;;;;;;24.96;100.00;101003.16;5050959;28;20561;-84
2022/07/13 10:47:11;;;;;;;;;;;;;;;25.10;100.00;101018.50;5042618;28;19932;-84
2022/07/13 10:49:47;;;;;;;;;;;;;;;25.10;98.04;101007.38;5043811;28;20448;-85
2022/07/13 10:52:53;;;;;;;;;;;;;;;25.05;92.55;101022.44;5035309;28;19932;-84
2022/07/13 10:55:30;;;;;;;;;;;;;;;25.21;90.85;101013.94;5031625;28;19932;-82
2022/07/13 10:58:18;;;;;;;;;;;;;;;25.38;89.87;101004.31;5039451;28;19939;-84
2022/07/13 11:00:50;;;;;;;;;;;;;;;25.65;100.00;100992.34;5030489;28;19929;-85
2022/07/13 11:03:24;;;;;;;;;;;;;;;25.78;89.15;100999.28;5035226;28;20313;-84
2022/07/13 11:06:09;;;;;;;;;;;;;;;25.93;95.77;100997.50;5034863;28;20275;-83
2022/07/13 11:08:37;;;;;;;;;;;;;;;25.90;86.21;101001.84;5048603;28;21475;-84
2022/07/13 11:11:11;;;;;;;;;;;;;;;26.04;93.50;101009.63;5008666;28;19932;-85
2022/07/13 11:13:39;;;;;;;;;;;;;;;25.65;80.76;100989.56;5040782;28;19933;-86
2022/07/13 11:16:13;;;;;;;;;;;;;;;25.68;85.04;100991.59;5031769;28;19933;-84
2022/07/13 11:18:52;;;;;;;;;;;;;;;25.91;92.79;100997.09;5038967;28;20232;-84
2022/07/13 11:21:27;;;;;;;;;;;;;;;25.89;82.56;100983.50;5041968;28;19932;-85
2022/07/13 11:27:07;;;;;;;;;;;;;;;26.18;86.18;100985.91;4998532;28;19933;-86
2022/07/13 11:29:40;;;;;;;;;;;;;;;26.24;82.02;100998.31;4974596;28;19933;-83
2022/07/13 11:32:13;;;;;;;;;;;;;;;26.22;78.77;100983.97;5011766;28;21001;-84
2022/07/13 11:34:47;;;;;;;;;;;;;;;26.13;85.14;100990.63;5033810;28;19932;-85
2022/07/13 11:37:22;;;;;;;;;;;;;;;26.28;87.85;100988.00;5031313;28;20393;-83
2022/07/13 11:39:55;;;;;;;;;;;;;;;26.38;79.77;100998.50;5040563;28;20255;-85
2022/07/13 11:42:23;;;;;;;;;;;;;;;26.61;88.74;100992.78;5035097;28;19932;-86
2022/07/13 11:44:56;;;;;;;;;;;;;;;26.49;81.55;100993.06;5037281;28;19932;-85
2022/07/13 11:47:29;;;;;;;;;;;;;;;26.21;80.34;100994.34;5034070;28;20006;-84
2022/07/13 11:49:57;;;;;;;;;;;;;;;26.25;83.82;100988.78;5035893;28;19940;-84
2022/07/13 11:52:31;;;;;;;;;;;;;;;26.52;87.33;100997.06;5034150;28;19933;-83
2022/07/13 11:55:05;;;;;;;;;;;;;;;26.92;89.42;100993.50;5034147;28;19932;-85
2022/07/13 11:57:38;;;;;;;;;;;;;;;26.98;82.30;100991.16;5032928;28;20723;-83
2022/07/13 12:00:11;;;;;;;;;;;;;;;27.10;79.15;100990.06;5042536;28;19932;-83
2022/07/13 12:02:51;;;;;;;;;;;;;;;26.97;76.30;100979.19;5038598;28;19932;-83
2022/07/13 12:05:24;;;;;;;;;;;;;;;26.74;83.72;100982.16;5038034;28;19939;-85
2022/07/13 12:08:03;;;;;;;;;;;;;;;26.85;88.01;100993.44;5034850;28;19939;-83
2022/07/13 12:10:34;;;;;;;;;;;;;;;27.07;83.76;100977.69;5013545;28;19991;-84
2022/07/13 12:13:07;;;;;;;;;;;;;;;27.03;79.46;100974.06;5040022;28;19932;-86
2022/07/13 12:15:34;;;;;;;;;;;;;;;27.09;79.37;100983.66;5037088;28;20312;-82
2022/07/13 12:18:10;;;;;;;;;;;;;;;27.10;87.05;100976.91;5040582;28;19936;-83
2022/07/13 12:20:44;;;;;;;;;;;;;;;27.54;91.09;100972.47;5039247;28;19940;-84
2022/07/13 12:23:13;;;;;;;;;;;;;;;27.40;80.65;100973.16;5031261;28;19955;-82
2022/07/13 12:25:41;;;;;;;;;;;;;;;27.19;82.91;100975.78;5035884;28;19932;-84
2022/07/13 12:28:10;;;;;;;;;;;;;;;27.10;84.17;100974.09;5036500;28;19943;-86
2022/07/13 12:31:04;;;;;;;;;;;;;;;27.21;81.10;100965.03;5041136;28;19933;-83
2022/07/13 12:33:39;;;;;;;;;;;;;;;27.63;81.42;100964.53;5029352;28;19932;-84
2022/07/13 12:36:13;;;;;;;;;;;;;;;27.78;78.33;100970.19;5039280;28;19932;-84
2022/07/13 12:38:57;;;;;;;;;;;;;;;27.14;80.68;100969.34;5039877;28;19932;-83
2022/07/13 12:41:32;;;;;;;;;;;;;;;26.47;84.78;100973.09;5028742;28;19932;-84
2022/07/13 12:44:01;;;;;;;;;;;;;;;26.43;91.93;100967.47;5031389;28;19936;-85
2022/07/13 12:46:46;;;;;;;;;;;;;;;26.43;90.48;100969.44;5037423;28;19933;-84
2022/07/13 12:49:19;;;;;;;;;;;;;;;26.04;83.63;100970.59;5035308;28;19940;-84
2022/07/13 12:51:53;;;;;;;;;;;;;;;25.92;87.37;100981.97;5034001;28;19940;-86
2022/07/13 12:54:41;;;;;;;;;;;;;;;25.60;86.70;100974.78;5040029;28;20768;-87
2022/07/13 12:57:16;;;;;;;;;;;;;;;25.61;95.03;100981.94;5034656;28;19939;-85
2022/07/13 12:59:57;;;;;;;;;;;;;;;25.58;87.54;100974.34;5044226;28;19933;-84
2022/07/13 13:02:30;;;;;;;;;;;;;;;25.85;90.69;100976.28;5037527;28;19932;-84
2022/07/13 13:05:05;;;;;;;;;;;;;;;25.93;92.58;100969.63;5035751;28;19933;-84
2022/07/13 13:07:39;;;;;;;;;;;;;;;25.53;88.89;100969.09;5043461;28;19933;-86